Time;durP1;ratioP1;P1;durP2;ratioP2;P2;SDS_P1;SDS_P2;PMS_P1;PMS_P2;Temp;Humidity;BMP_temperature;BMP_pressure;BME280_temperature;BME280_humidity;BME280_pressure;Samples;Min_cycle;Max_cycle;Signal;HPM_P1;HPM_P2
2022/04/02 00:00:53;;;;;;;1999.90;999.90;;;;;;;-1.47;38.33;100669.28;4918525;28;97604;-71
2022/04/02 00:03:21;;;;;;;1999.90;999.90;;;;;;;-1.53;37.84;100684.56;4923233;28;97600;-70
2022/04/02 00:05:50;;;;;;;1999.90;999.90;;;;;;;-1.55;38.37;100666.97;4921635;28;99397;-70
2022/04/02 00:08:18;;;;;;;1999.90;999.90;;;;;;;-1.55;38.17;100672.19;4922217;28;98734;-71
2022/04/02 00:10:46;;;;;;;1999.90;999.90;;;;;;;-1.57;37.52;100671.19;4923552;28;98731;-71
2022/04/02 00:13:16;;;;;;;1999.90;999.90;;;;;;;-1.62;38.07;100664.75;4921608;28;97540;-73
2022/04/02 00:15:45;;;;;;;1999.90;999.90;;;;;;;-1.62;38.18;100681.34;4920580;28;100840;-72
2022/04/02 00:18:12;;;;;;;1999.90;999.90;;;;;;;-1.61;38.16;100677.00;4925397;28;99692;-72
2022/04/02 00:20:40;;;;;;;1999.90;999.90;;;;;;;-1.60;37.64;100666.69;4917853;28;96941;-72
2022/04/02 00:25:55;;;;;;;1999.90;999.90;;;;;;;-1.59;37.73;100678.00;4922926;28;98940;-70
2022/04/02 00:28:22;;;;;;;1999.90;999.90;;;;;;;-1.60;37.51;100679.72;4925495;28;98204;-71
2022/04/02 00:30:50;;;;;;;1999.90;999.90;;;;;;;-1.61;37.93;100674.38;4906322;28;96900;-71
2022/04/02 00:33:18;;;;;;;1999.90;999.90;;;;;;;-1.62;38.12;100680.41;4920318;28;97350;-70
2022/04/02 00:35:45;;;;;;;1999.90;999.90;;;;;;;-1.62;37.45;100675.19;4921699;28;97029;-72
2022/04/02 00:38:14;;;;;;;1999.90;999.90;;;;;;;-1.63;37.77;100676.91;4924154;28;97229;-69
2022/04/02 00:40:42;;;;;;;1999.90;999.90;;;;;;;-1.64;37.94;100688.16;4922892;28;97014;-71
2022/04/02 00:43:21;;;;;;;1999.90;999.90;;;;;;;-1.70;38.54;100685.09;4920796;28;97026;-69
2022/04/02 00:45:50;;;;;;;1999.90;999.90;;;;;;;-1.70;38.38;100681.59;4927398;28;97457;-71
2022/04/02 00:48:18;;;;;;;1999.90;999.90;;;;;;;-1.70;38.26;100682.50;4922245;28;97389;-72
2022/04/02 00:50:46;;;;;;;1999.90;999.90;;;;;;;-1.73;38.08;100678.78;4920743;28;98255;-73
2022/04/02 00:53:16;;;;;;;1999.90;999.90;;;;;;;-1.73;38.16;100684.00;4906446;28;96831;-71
2022/04/02 00:55:46;;;;;;;1999.90;999.90;;;;;;;-1.75;38.27;100686.50;4924147;28;97450;-71
2022/04/02 00:58:13;;;;;;;1999.90;999.90;;;;;;;-1.76;38.12;100687.28;4923253;28;97504;-72
2022/04/02 01:00:41;;;;;;;1999.90;999.90;;;;;;;-1.79;38.50;100684.47;4904536;28;97355;-70
2022/04/02 01:03:11;;;;;;;1999.90;999.90;;;;;;;-1.80;38.53;100697.44;4919196;28;97360;-70
2022/04/02 01:05:44;;;;;;;1999.90;999.90;;;;;;;-1.82;38.76;100697.31;4903430;28;96973;-71
2022/04/02 01:08:12;;;;;;;1999.90;999.90;;;;;;;-1.83;38.54;100695.50;4910503;28;100566;-72
2022/04/02 01:10:44;;;;;;;1999.90;999.90;;;;;;;-1.83;38.48;100695.50;4905550;28;97056;-71
2022/04/02 01:13:12;;;;;;;1999.90;999.90;;;;;;;-1.83;38.40;100692.00;4922314;28;96912;-71
2022/04/02 01:15:41;;;;;;;1999.90;999.90;;;;;;;-1.85;38.93;100692.78;4906367;28;99588;-71
2022/04/02 01:18:12;;;;;;;1999.90;999.90;;;;;;;-1.83;38.94;100699.84;4924605;28;98143;-72
2022/04/02 01:20:40;;;;;;;1999.90;999.90;;;;;;;-1.85;38.05;100692.78;4927718;28;96873;-70
2022/04/02 01:23:09;;;;;;;1999.90;999.90;;;;;;;-1.86;38.29;100703.13;4924881;28;96855;-70
2022/04/02 01:25:43;;;;;;;1999.90;999.90;;;;;;;-1.86;39.04;100696.22;4915444;28;97661;-71
2022/04/02 01:28:18;;;;;;;1999.90;999.90;;;;;;;-1.85;38.88;100695.41;4923452;28;97880;-71
2022/04/02 01:30:50;;;;;;;1999.90;999.90;;;;;;;-1.84;38.28;100704.13;4922689;28;96954;-70
2022/04/02 01:33:18;;;;;;;1999.90;999.90;;;;;;;-1.82;38.46;100704.22;4916513;28;97646;-71
2022/04/02 01:35:46;;;;;;;1999.90;999.90;;;;;;;-1.83;38.39;100712.88;4919623;28;99764;-71
2022/04/02 01:38:20;;;;;;;1999.90;999.90;;;;;;;-1.86;38.81;100701.44;4924952;28;99336;-71
2022/04/02 01:40:48;;;;;;;1999.90;999.90;;;;;;;-1.84;38.34;100709.34;4944779;28;96855;-71
2022/04/02 01:43:19;;;;;;;1999.90;999.90;;;;;;;-1.85;39.01;100716.25;4928492;28;97625;-71
2022/04/02 01:45:56;;;;;;;1999.90;999.90;;;;;;;-1.85;38.39;100715.34;4934916;28;97883;-71
2022/04/02 01:48:28;;;;;;;1999.90;999.90;;;;;;;-1.42;39.03;100709.66;4927162;28;98647;-71
2022/04/02 01:51:02;;;;;;;1999.90;999.90;;;;;;;-1.66;38.99;100709.69;4910408;28;96948;-71
2022/04/02 01:53:31;;;;;;;1999.90;999.90;;;;;;;-1.71;39.01;100711.09;4927569;28;97328;-70
2022/04/02 01:56:02;;;;;;;1999.90;999.90;;;;;;;-1.74;38.70;100718.72;4969680;22;97972;-72
2022/04/02 01:58:40;;;;;;;1999.90;999.90;;;;;;;-1.77;39.45;100722.00;4933807;28;98934;-70
2022/04/02 02:01:12;;;;;;;1999.90;999.90;;;;;;;-1.77;39.44;100726.31;4937355;28;97350;-69
2022/04/02 02:03:41;;;;;;;1999.90;999.90;;;;;;;-1.80;39.19;100715.69;4912353;28;96947;-69
2022/04/02 02:06:09;;;;;;;1999.90;999.90;;;;;;;-1.81;38.81;100717.38;4925904;28;99756;-69
2022/04/02 02:08:42;;;;;;;1999.90;999.90;;;;;;;-1.87;38.95;100710.03;4912503;28;99718;-70
2022/04/02 02:11:24;;;;;;;1999.90;999.90;;;;;;;-1.88;39.03;100722.97;4909958;28;97051;-70
2022/04/02 02:14:31;;;;;;;1999.90;999.90;;;;;;;-1.91;39.14;100713.22;4929345;28;97620;-70
2022/04/02 02:17:11;;;;;;;1999.90;999.90;;;;;;;-1.91;39.11;100722.78;4927174;28;97970;-69
2022/04/02 02:19:39;;;;;;;1999.90;999.90;;;;;;;-1.92;39.30;100718.34;4913886;28;98524;-69
2022/04/02 02:22:08;;;;;;;1999.90;999.90;;;;;;;-1.92;39.03;100721.84;4909334;28;98139;-69
2022/04/02 02:24:37;;;;;;;1999.90;999.90;;;;;;;-1.94;39.64;100723.44;4945799;28;97194;-69
2022/04/02 02:27:05;;;;;;;1999.90;999.90;;;;;;;-1.95;39.37;100726.88;4927737;28;99819;-71
2022/04/02 02:29:33;;;;;;;1999.90;999.90;;;;;;;-2.00;39.42;100723.00;4902613;28;100612;-69
2022/04/02 02:32:14;;;;;;;1999.90;999.90;;;;;;;-1.55;39.03;100721.75;4909049;28;98079;-69
2022/04/02 02:37:30;;;;;;;1999.90;999.90;;;;;;;-1.93;39.68;100733.09;4913836;28;98017;-69
2022/04/02 02:40:06;;;;;;;1999.90;999.90;;;;;;;-1.97;39.92;100728.47;4911947;28;100636;-70
2022/04/02 02:42:35;;;;;;;1999.90;999.90;;;;;;;-1.99;39.52;100737.88;4910232;28;97827;-70
2022/04/02 02:45:21;;;;;;;1999.90;999.90;;;;;;;-2.01;39.33;100735.94;4911079;28;97191;-70
2022/04/02 02:47:49;;;;;;;1999.90;999.90;;;;;;;-2.03;39.63;100735.84;4927971;28;99021;-71
2022/04/02 02:50:24;;;;;;;1999.90;999.90;;;;;;;-2.04;40.08;100735.75;4921861;28;100100;-70
2022/04/02 02:52:57;;;;;;;1999.90;999.90;;;;;;;-2.06;39.63;100740.84;4912359;28;97938;-69
2022/04/02 02:55:26;;;;;;;1999.90;999.90;;;;;;;-2.08;39.63;100739.84;4908361;28;97241;-69
2022/04/02 02:57:55;;;;;;;1999.90;999.90;;;;;;;-1.66;39.03;100735.78;4897116;28;99236;-69
2022/04/02 03:00:24;;;;;;;1999.90;999.90;;;;;;;-1.91;39.49;100739.28;4923515;28;98124;-70
2022/04/02 03:02:56;;;;;;;1999.90;999.90;;;;;;;-1.98;39.64;100744.00;4905440;28;97616;-70
2022/04/02 03:05:28;;;;;;;1999.90;999.90;;;;;;;-2.04;39.72;100752.28;4907679;28;99704;-69
2022/04/02 03:08:00;;;;;;;1999.90;999.90;;;;;;;-2.04;40.19;100749.69;4907144;28;100679;-69
2022/04/02 03:10:40;;;;;;;1999.90;999.90;;;;;;;-2.06;40.34;100745.16;4898810;28;98084;-70
2022/04/02 03:13:09;;;;;;;1999.90;999.90;;;;;;;-2.06;39.97;100745.16;4906101;28;96903;-69
2022/04/02 03:15:38;;;;;;;1999.90;999.90;;;;;;;-2.07;39.81;100748.56;4908669;28;97228;-72
2022/04/02 03:18:09;;;;;;;1999.90;999.90;;;;;;;-2.06;39.71;100752.97;4907601;28;98632;-72
2022/04/02 03:20:44;;;;;;;1999.90;999.90;;;;;;;-2.08;40.05;100742.44;4905009;28;99269;-69
2022/04/02 03:23:18;;;;;;;1999.90;999.90;;;;;;;-2.08;39.61;100742.44;4907176;28;97818;-70
2022/04/02 03:25:47;;;;;;;1999.90;999.90;;;;;;;-1.65;39.09;100741.09;4922893;28;97103;-70
2022/04/02 03:28:17;;;;;;;1999.90;999.90;;;;;;;-1.41;39.67;100739.25;4891985;28;98992;-70
2022/04/02 03:30:45;;;;;;;1999.90;999.90;;;;;;;-1.76;40.43;100744.66;4921844;28;100444;-69
2022/04/02 03:33:14;;;;;;;1999.90;999.90;;;;;;;-1.88;39.90;100752.56;4906529;28;97100;-69
2022/04/02 03:35:44;;;;;;;1999.90;999.90;;;;;;;-1.49;39.71;100746.59;4921418;28;97136;-69
2022/04/02 03:38:13;;;;;;;1999.90;999.90;;;;;;;-1.80;39.77;100750.50;4907162;28;99800;-69
2022/04/02 03:40:43;;;;;;;1999.90;999.90;;;;;;;-1.89;40.02;100758.56;4923401;28;97992;-69
2022/04/02 03:43:13;;;;;;;1999.90;999.90;;;;;;;-1.98;40.26;100760.53;4911385;28;97074;-69
2022/04/02 03:45:42;;;;;;;1999.90;999.90;;;;;;;-2.03;40.15;100763.59;4923992;28;98033;-70
2022/04/02 03:48:10;;;;;;;1999.90;999.90;;;;;;;-2.08;40.29;100765.91;4892205;28;98533;-69
2022/04/02 03:50:41;;;;;;;1999.90;999.90;;;;;;;-2.11;40.57;100764.78;4920322;28;97602;-70
2022/04/02 03:53:16;;;;;;;1999.90;999.90;;;;;;;-2.15;40.77;100773.19;4906879;28;96935;-70
2022/04/02 03:55:55;;;;;;;1999.90;999.90;;;;;;;-2.19;40.03;100768.50;4908211;28;99520;-70
2022/04/02 03:58:39;;;;;;;1999.90;999.90;;;;;;;-2.23;40.55;100767.38;4908114;28;99756;-70
2022/04/02 04:01:11;;;;;;;1999.90;999.90;;;;;;;-2.26;40.38;100769.78;4920327;28;98325;-71
2022/04/02 04:03:40;;;;;;;1999.90;999.90;;;;;;;-2.29;40.53;100774.75;4920871;28;96887;-70
2022/04/02 04:06:09;;;;;;;1999.90;999.90;;;;;;;-2.31;40.82;100770.25;4905416;28;97994;-70
2022/04/02 04:08:38;;;;;;;1999.90;999.90;;;;;;;-2.33;40.42;100770.13;4923201;28;97532;-70
2022/04/02 04:11:06;;;;;;;1999.90;999.90;;;;;;;-2.33;40.89;100775.34;4921077;28;99637;-70
2022/04/02 04:13:37;;;;;;;1999.90;999.90;;;;;;;-2.33;40.07;100777.97;4921775;28;97227;-70
2022/04/02 04:16:07;;;;;;;1999.90;999.90;;;;;;;-2.34;40.57;100775.22;4914987;28;99907;-70
2022/04/02 04:18:36;;;;;;;1999.90;999.90;;;;;;;-2.34;40.30;100777.81;4922731;28;97207;-70
2022/04/02 04:21:05;;;;;;;1999.90;999.90;;;;;;;-2.35;40.24;100783.84;4906626;28;99725;-69
2022/04/02 04:23:34;;;;;;;1999.90;999.90;;;;;;;-2.37;40.35;100778.53;4906085;28;98409;-70
2022/04/02 04:26:05;;;;;;;1999.90;999.90;;;;;;;-2.39;40.93;100785.31;4923366;28;97618;-70
2022/04/02 04:28:39;;;;;;;1999.90;999.90;;;;;;;-2.39;40.27;100790.53;4922044;28;100518;-70
2022/04/02 04:31:09;;;;;;;1999.90;999.90;;;;;;;-2.40;40.25;100795.63;4920693;28;100478;-70
2022/04/02 04:33:37;;;;;;;1999.90;999.90;;;;;;;-2.40;40.81;100804.34;4921367;28;96942;-70
2022/04/02 04:36:06;;;;;;;1999.90;999.90;;;;;;;-2.41;40.39;100804.22;4921099;28;97171;-70
2022/04/02 04:38:34;;;;;;;1999.90;999.90;;;;;;;-2.43;40.70;100806.72;4938865;28;98946;-70
2022/04/02 04:41:07;;;;;;;1999.90;999.90;;;;;;;-2.43;40.41;100809.34;4904049;28;100683;-70
2022/04/02 04:43:35;;;;;;;1999.90;999.90;;;;;;;-2.41;40.44;100818.16;4905586;28;97253;-70
2022/04/02 04:46:03;;;;;;;1999.90;999.90;;;;;;;-2.42;41.10;100821.59;4906274;28;97194;-70
2022/04/02 04:48:35;;;;;;;1999.90;999.90;;;;;;;-2.43;40.50;100817.16;4907106;28;100312;-70
2022/04/02 04:51:03;;;;;;;1999.90;999.90;;;;;;;-2.46;40.33;100822.16;4934836;28;98008;-70
2022/04/02 04:53:33;;;;;;;1999.90;999.90;;;;;;;-2.45;40.88;100817.81;4921898;28;96955;-70
2022/04/02 04:56:01;;;;;;;1999.90;999.90;;;;;;;-2.46;40.96;100823.84;4922127;28;97352;-70
2022/04/02 04:58:31;;;;;;;1999.90;999.90;;;;;;;-2.47;41.00;100817.72;4921068;28;97905;-70
2022/04/02 05:01:03;;;;;;;1999.90;999.90;;;;;;;-2.48;41.10;100822.81;4919820;28;99005;-70
2022/04/02 05:03:34;;;;;;;1999.90;999.90;;;;;;;-2.49;40.33;100829.72;4905515;28;97005;-70
2022/04/02 05:06:06;;;;;;;1999.90;999.90;;;;;;;-2.48;40.88;100839.34;4921868;28;97628;-70
2022/04/02 05:08:34;;;;;;;1999.90;999.90;;;;;;;-2.48;40.70;100828.94;4922106;28;98694;-70
2022/04/02 05:11:04;;;;;;;1999.90;999.90;;;;;;;-2.47;40.94;100841.16;4921609;28;99112;-70
2022/04/02 05:13:40;;;;;;;1999.90;999.90;;;;;;;-2.47;40.99;100840.28;4919263;28;97058;-70
2022/04/02 05:16:11;;;;;;;1999.90;999.90;;;;;;;-2.47;40.54;100841.16;4937435;28;96890;-72
2022/04/02 05:18:41;;;;;;;1999.90;999.90;;;;;;;-2.48;40.88;100848.88;4937243;28;98640;-70
2022/04/02 05:21:10;;;;;;;1999.90;999.90;;;;;;;-2.50;40.72;100848.75;4923215;28;97795;-70
2022/04/02 05:23:41;;;;;;;1999.90;999.90;;;;;;;-2.50;40.87;100853.97;4936608;28;97438;-70
2022/04/02 05:26:09;;;;;;;1999.90;999.90;;;;;;;-2.51;41.02;100846.94;4920949;28;97618;-69
2022/04/02 05:28:37;;;;;;;1999.90;999.90;;;;;;;-2.50;40.36;100856.56;4920386;28;101425;-72
2022/04/02 05:31:05;;;;;;;1999.90;999.90;;;;;;;-2.51;41.18;100854.75;4917571;28;98938;-70
2022/04/02 05:33:32;;;;;;;1999.90;999.90;;;;;;;-2.07;39.73;100858.06;4919499;28;97585;-70
2022/04/02 05:36:09;;;;;;;1999.90;999.90;;;;;;;-2.31;40.75;100859.72;4905273;28;97740;-70
2022/04/02 05:38:36;;;;;;;1999.90;999.90;;;;;;;-2.36;40.79;100850.66;4895021;28;100414;-70
2022/04/02 05:41:04;;;;;;;1999.90;999.90;;;;;;;-2.37;40.39;100866.19;4910583;28;96878;-70
2022/04/02 05:43:32;;;;;;;1999.90;999.90;;;;;;;-2.37;40.41;100869.72;4920930;28;96953;-70
2022/04/02 05:46:00;;;;;;;1999.90;999.90;;;;;;;-2.38;40.53;100873.09;4938834;28;97328;-71
2022/04/02 05:48:29;;;;;;;1999.90;999.90;;;;;;;-2.38;40.84;100880.91;4922953;28;100376;-70
2022/04/02 05:50:58;;;;;;;1999.90;999.90;;;;;;;-2.36;41.07;100874.13;4910279;28;99326;-70
2022/04/02 05:53:27;;;;;;;1999.90;999.90;;;;;;;-2.36;40.95;100876.72;4921924;28;97213;-70
2022/04/02 05:55:55;;;;;;;1999.90;999.90;;;;;;;-2.37;41.14;100881.81;4924398;28;97247;-71
2022/04/02 05:58:23;;;;;;;1999.90;999.90;;;;;;;-2.36;40.98;100881.94;4925461;28;97645;-71
2022/04/02 06:00:51;;;;;;;1999.90;999.90;;;;;;;-2.36;40.20;100887.16;4922784;28;98434;-70
2022/04/02 06:03:20;;;;;;;1999.90;999.90;;;;;;;-2.37;40.41;100890.56;4925564;28;97038;-70
2022/04/02 06:05:48;;;;;;;1999.90;999.90;;;;;;;-2.36;40.42;100887.16;4922006;28;96804;-70
2022/04/02 06:08:16;;;;;;;1999.90;999.90;;;;;;;-2.35;40.53;100902.00;4939259;28;97529;-70
2022/04/02 06:10:46;;;;;;;1999.90;999.90;;;;;;;-2.34;40.77;100895.06;4922854;28;98505;-71
2022/04/02 06:13:14;;;;;;;1999.90;999.90;;;;;;;-2.32;40.73;100904.81;4926946;28;96660;-71
2022/04/02 06:15:42;;;;;;;1999.90;999.90;;;;;;;-2.31;40.92;100901.41;4925829;28;96880;-70
2022/04/02 06:18:11;;;;;;;1999.90;999.90;;;;;;;-2.28;40.71;100911.16;4922790;28;96919;-70
2022/04/02 06:20:39;;;;;;;1999.90;999.90;;;;;;;-2.27;40.83;100919.09;4922801;28;97789;-71
2022/04/02 06:23:07;;;;;;;1999.90;999.90;;;;;;;-2.27;40.60;100919.09;4924133;28;96885;-70
2022/04/02 06:25:35;;;;;;;1999.90;999.90;;;;;;;-2.24;40.54;100924.56;4926389;28;97002;-71
2022/04/02 06:28:05;;;;;;;1999.90;999.90;;;;;;;-2.22;40.71;100927.28;4925092;28;97809;-71
2022/04/02 06:30:33;;;;;;;1999.90;999.90;;;;;;;-2.20;40.61;100923.97;4923464;28;97819;-70
2022/04/02 06:33:01;;;;;;;1999.90;999.90;;;;;;;-2.18;40.82;100926.72;4924272;28;97343;-70
2022/04/02 06:35:29;;;;;;;1999.90;999.90;;;;;;;-2.18;40.59;100927.59;4920779;28;98572;-70
2022/04/02 06:37:57;;;;;;;1999.90;999.90;;;;;;;-2.16;40.34;100928.66;4918975;28;100523;-69
2022/04/02 06:40:26;;;;;;;1999.90;999.90;;;;;;;-1.74;40.64;100925.66;4881883;28;98623;-70
2022/04/02 06:42:56;;;;;;;1999.90;999.90;;;;;;;-1.50;40.33;100934.31;4915350;28;97458;-70
2022/04/02 06:46:00;;;;;;;1999.90;999.90;;;;;;;-1.30;40.31;100921.91;4915896;28;98212;-71
2022/04/02 06:48:28;;;;;;;1999.90;999.90;;;;;;;-1.59;40.92;100928.44;4918444;28;99157;-70
2022/04/02 06:50:56;;;;;;;1999.90;999.90;;;;;;;-1.67;40.52;100932.22;4927342;28;99928;-70
2022/04/02 06:53:24;;;;;;;1999.90;999.90;;;;;;;-1.69;40.74;100936.44;4916021;28;98588;-70
2022/04/02 06:55:51;;;;;;;1999.90;999.90;;;;;;;-1.72;41.10;100923.19;4921211;28;96991;-69
2022/04/02 06:58:26;;;;;;;1999.90;999.90;;;;;;;-1.75;40.74;100936.88;4915814;28;99368;-69
2022/04/02 07:00:54;;;;;;;1999.90;999.90;;;;;;;-1.73;40.69;100939.59;4915825;28;97798;-70
2022/04/02 07:03:23;;;;;;;1999.90;999.90;;;;;;;-1.73;40.58;100942.22;4919949;28;97852;-70
2022/04/02 07:05:51;;;;;;;1999.90;999.90;;;;;;;-1.73;40.72;100935.31;4920654;28;97141;-70
2022/04/02 07:08:19;;;;;;;1999.90;999.90;;;;;;;-1.70;40.25;100950.25;4920963;28;97760;-70
2022/04/02 07:10:47;;;;;;;1999.90;999.90;;;;;;;-1.72;41.24;100949.25;4921781;28;97461;-69
2022/04/02 07:13:15;;;;;;;1999.90;999.90;;;;;;;-1.68;40.29;100940.84;4922177;28;97703;-70
2022/04/02 07:15:44;;;;;;;1999.90;999.90;;;;;;;-1.66;40.56;100953.19;4924841;28;97865;-69
2022/04/02 07:18:11;;;;;;;1999.90;999.90;;;;;;;-1.65;40.45;100952.38;4921766;28;98074;-70
2022/04/02 07:20:41;;;;;;;1999.90;999.90;;;;;;;-1.61;40.68;100953.50;4914982;28;99664;-70
2022/04/02 07:23:10;;;;;;;1999.90;999.90;;;;;;;-1.57;40.59;100952.94;4920834;28;97699;-69
2022/04/02 07:25:39;;;;;;;1999.90;999.90;;;;;;;-1.53;40.30;100958.50;4933674;28;97151;-70
2022/04/02 07:28:09;;;;;;;1999.90;999.90;;;;;;;-1.51;41.09;100963.84;4905050;28;98941;-69
2022/04/02 07:30:38;;;;;;;1999.90;999.90;;;;;;;-1.48;40.13;100962.34;4914768;28;99331;-70
2022/04/02 07:33:07;;;;;;;1999.90;999.90;;;;;;;-1.43;40.51;100960.09;4892637;28;99134;-70
2022/04/02 07:35:41;;;;;;;1999.90;999.90;;;;;;;-1.41;40.10;100961.06;4904833;28;97533;-70
2022/04/02 07:38:13;;;;;;;1999.90;999.90;;;;;;;-1.39;40.60;100967.31;4915597;28;98765;-71
2022/04/02 07:40:51;;;;;;;1999.90;999.90;;;;;;;-1.36;40.80;100967.56;4918071;28;99406;-69
2022/04/02 07:43:27;;;;;;;1999.90;999.90;;;;;;;-1.34;40.64;100969.44;4917694;28;97004;-69
2022/04/02 07:46:01;;;;;;;1999.90;999.90;;;;;;;-1.31;40.04;100964.47;4919255;28;97641;-69
2022/04/02 07:48:32;;;;;;;1999.90;999.90;;;;;;;-1.27;40.71;100966.47;4920108;28;100577;-70
2022/04/02 07:51:00;;;;;;;1999.90;999.90;;;;;;;-1.22;40.78;100967.72;4920235;28;97165;-71
2022/04/02 07:53:36;;;;;;;1999.90;999.90;;;;;;;-1.19;40.30;100962.72;4904289;28;97738;-71
2022/04/02 07:56:05;;;;;;;1999.90;999.90;;;;;;;-1.11;40.82;100965.88;4913584;28;97899;-69
2022/04/02 07:58:35;;;;;;;1999.90;999.90;;;;;;;-1.06;40.21;100965.41;4919346;28;97670;-71
2022/04/02 08:01:05;;;;;;;1999.90;999.90;;;;;;;-1.00;40.05;100967.53;4919452;28;97727;-71
2022/04/02 08:03:41;;;;;;;1999.90;999.90;;;;;;;-0.94;40.30;100968.84;4927215;28;98093;-72
2022/04/02 08:06:10;;;;;;;1999.90;999.90;;;;;;;-0.87;39.83;100983.25;4914678;28;97805;-72
2022/04/02 08:08:39;;;;;;;1999.90;999.90;;;;;;;-0.84;40.20;100975.63;4919919;28;98096;-72
2022/04/02 08:11:08;;;;;;;1999.90;999.90;;;;;;;-0.76;40.00;100974.47;4916820;28;98918;-71
2022/04/02 08:13:37;;;;;;;1999.90;999.90;;;;;;;-0.68;39.64;100980.22;4915832;28;97439;-72
2022/04/02 08:16:05;;;;;;;1999.90;999.90;;;;;;;-0.61;39.83;100980.72;4925130;28;97473;-73
2022/04/02 08:18:33;;;;;;;1999.90;999.90;;;;;;;-0.46;39.71;100973.00;4915645;28;98335;-73
2022/04/02 08:21:02;;;;;;;1999.90;999.90;;;;;;;-0.43;39.58;100976.75;4913935;28;99781;-73
2022/04/02 08:23:33;;;;;;;1999.90;999.90;;;;;;;-0.33;39.54;100987.03;4914121;28;97719;-73
2022/04/02 08:26:15;;;;;;;1999.90;999.90;;;;;;;-0.24;39.05;100982.41;4916711;28;96995;-73
2022/04/02 08:28:59;;;;;;;1999.90;999.90;;;;;;;-0.17;39.07;100976.78;4917556;28;98979;-73
2022/04/02 08:31:32;;;;;;;1999.90;999.90;;;;;;;-0.13;39.10;100984.03;4904810;28;98748;-73
2022/04/02 08:34:08;;;;;;;1999.90;999.90;;;;;;;-0.04;38.96;100986.34;4910143;28;98788;-74
2022/04/02 08:36:42;;;;;;;1999.90;999.90;;;;;;;0.02;38.60;100995.53;4912125;28;97700;-72
2022/04/02 08:39:17;;;;;;;1999.90;999.90;;;;;;;0.06;38.55;100994.91;4915091;28;99328;-72
2022/04/02 08:42:16;;;;;;;1999.90;999.90;;;;;;;0.11;38.47;100990.91;4917319;28;98701;-72
2022/04/02 08:45:02;;;;;;;1999.90;999.90;;;;;;;0.10;38.28;100996.03;4910112;28;101347;-73
2022/04/02 08:48:01;;;;;;;1999.90;999.90;;;;;;;0.09;38.42;100997.75;4910246;28;99858;-73
2022/04/02 08:50:30;;;;;;;1999.90;999.90;;;;;;;0.14;38.34;100993.72;4913427;28;98594;-73
2022/04/02 08:53:01;;;;;;;1999.90;999.90;;;;;;;0.22;38.34;100996.84;4916243;28;99599;-73
2022/04/02 08:55:39;;;;;;;1999.90;999.90;;;;;;;0.27;38.19;101005.91;4915784;28;97499;-73
2022/04/02 08:58:11;;;;;;;1999.90;999.90;;;;;;;0.32;38.19;100995.78;4914351;28;98488;-72
2022/04/02 09:00:42;;;;;;;1999.90;999.90;;;;;;;0.33;37.86;101000.19;4903734;28;99908;-73
2022/04/02 09:03:31;;;;;;;1999.90;999.90;;;;;;;0.35;38.22;100996.88;4900811;28;98286;-73
2022/04/02 09:06:27;;;;;;;1999.90;999.90;;;;;;;0.38;38.07;100993.53;4905511;28;98070;-72
2022/04/02 09:09:05;;;;;;;1999.90;999.90;;;;;;;0.42;38.00;100999.06;4915506;28;98586;-72
2022/04/02 09:11:48;;;;;;;1999.90;999.90;;;;;;;0.49;38.01;100989.88;4915826;28;100771;-73
2022/04/02 09:14:31;;;;;;;1999.90;999.90;;;;;;;0.55;37.72;100991.22;4914226;28;100266;-73
2022/04/02 09:17:04;;;;;;;1999.90;999.90;;;;;;;0.59;37.89;100994.94;4914157;28;98224;-72
2022/04/02 09:19:50;;;;;;;1999.90;999.90;;;;;;;0.58;37.44;100987.88;4920214;28;96874;-73
2022/04/02 09:22:31;;;;;;;1999.90;999.90;;;;;;;0.62;37.83;100997.72;4930120;28;99797;-72
2022/04/02 09:25:18;;;;;;;1999.90;999.90;;;;;;;0.68;37.78;100992.91;4919046;28;97922;-70
2022/04/02 09:28:00;;;;;;;1999.90;999.90;;;;;;;0.73;37.37;100991.47;4917508;28;97076;-76
2022/04/02 09:30:52;;;;;;;1999.90;999.90;;;;;;;0.79;37.54;100989.25;4918087;28;97351;-71
2022/04/02 09:33:47;;;;;;;1999.90;999.90;;;;;;;0.83;37.32;100994.75;4903429;28;97765;-69
2022/04/02 09:36:36;;;;;;;1999.90;999.90;;;;;;;0.89;36.90;100986.38;4916982;28;99064;-71
2022/04/02 09:39:08;;;;;;;1999.90;999.90;;;;;;;0.90;37.29;100989.13;4908528;28;96822;-71
2022/04/02 09:42:09;;;;;;;1999.90;999.90;;;;;;;0.89;37.24;100987.28;4906257;28;98614;-74
2022/04/02 09:44:59;;;;;;;1999.90;999.90;;;;;;;0.93;37.13;100993.63;4933806;28;98484;-75
2022/04/02 09:48:00;;;;;;;1999.90;999.90;;;;;;;0.95;37.62;100994.63;4906389;28;98342;-74
2022/04/02 09:50:30;;;;;;;1999.90;999.90;;;;;;;0.98;37.25;101000.06;4892998;28;97633;-73
2022/04/02 09:53:00;;;;;;;1999.90;999.90;;;;;;;0.99;37.28;100991.41;4910192;28;97180;-74
2022/04/02 09:55:29;;;;;;;1999.90;999.90;;;;;;;1.01;37.67;101002.88;4908213;28;100614;-72
2022/04/02 09:58:14;;;;;;;1999.90;999.90;;;;;;;0.99;36.79;100997.56;4918819;28;98979;-72
2022/04/02 10:00:46;;;;;;;1999.90;999.90;;;;;;;0.99;37.67;101005.41;4921049;28;97341;-71
2022/04/02 10:03:27;;;;;;;1999.90;999.90;;;;;;;0.99;37.25;101004.50;4918039;28;99177;-71
2022/04/02 10:06:17;;;;;;;1999.90;999.90;;;;;;;0.99;37.06;101005.41;4921684;28;98486;-74
2022/04/02 10:08:58;;;;;;;1999.90;999.90;;;;;;;1.04;37.56;101010.94;4922101;28;99614;-74
2022/04/02 10:11:29;;;;;;;1999.90;999.90;;;;;;;1.06;37.32;101005.00;4920663;28;97549;-72
2022/04/02 10:13:59;;;;;;;1999.90;999.90;;;;;;;1.10;37.00;101009.59;4923533;28;96845;-72
2022/04/02 10:16:27;;;;;;;1999.90;999.90;;;;;;;1.16;37.12;101003.81;4923352;28;99883;-74
2022/04/02 10:18:57;;;;;;;1999.90;999.90;;;;;;;1.18;37.15;101000.50;4924262;28;100917;-74
2022/04/02 10:21:28;;;;;;;1999.90;999.90;;;;;;;1.20;37.24;101011.06;4921539;28;96914;-73
2022/04/02 10:24:07;;;;;;;1999.90;999.90;;;;;;;1.21;37.10;101013.78;4916744;28;97614;-74
2022/04/02 10:26:38;;;;;;;1999.90;999.90;;;;;;;1.23;37.17;101008.66;4914242;28;99341;-73
2022/04/02 10:29:11;;;;;;;1999.90;999.90;;;;;;;1.21;36.77;101008.53;4916499;28;100002;-75
2022/04/02 10:31:45;;;;;;;1999.90;999.90;;;;;;;1.21;36.76;101007.66;4911685;28;97420;-74
2022/04/02 10:34:18;;;;;;;1999.90;999.90;;;;;;;1.18;37.10;101010.06;4916501;28;97089;-74
2022/04/02 10:36:51;;;;;;;1999.90;999.90;;;;;;;1.17;36.83;101010.88;4932325;28;99538;-73
2022/04/02 10:39:23;;;;;;;1999.90;999.90;;;;;;;1.17;37.13;101005.66;4915193;28;99443;-75
2022/04/02 10:41:55;;;;;;;1999.90;999.90;;;;;;;1.18;37.13;101007.44;4918147;28;97635;-74
2022/04/02 10:44:32;;;;;;;1999.90;999.90;;;;;;;1.20;37.00;100997.97;4921137;28;98519;-74
2022/04/02 10:47:03;;;;;;;1999.90;999.90;;;;;;;1.21;37.28;100991.94;4912864;28;99386;-74
2022/04/02 10:49:35;;;;;;;1999.90;999.90;;;;;;;1.23;36.66;101000.78;4928656;28;98705;-73
2022/04/02 10:52:06;;;;;;;1999.90;999.90;;;;;;;1.21;36.59;100997.16;4916717;28;97477;-73
2022/04/02 10:54:35;;;;;;;1999.90;999.90;;;;;;;1.17;36.95;100990.84;4921940;28;99357;-73
2022/04/02 10:57:04;;;;;;;1999.90;999.90;;;;;;;1.17;37.14;101001.31;4921300;28;97624;-73
2022/04/02 10:59:32;;;;;;;1999.90;999.90;;;;;;;1.17;36.79;101005.66;4920560;28;98881;-73
2022/04/02 11:02:01;;;;;;;1999.90;999.90;;;;;;;1.14;37.32;101000.22;4916203;28;97703;-74
2022/04/02 11:04:32;;;;;;;1999.90;999.90;;;;;;;1.14;36.59;101000.22;4919776;28;97862;-73
2022/04/02 11:07:00;;;;;;;1999.90;999.90;;;;;;;1.13;37.29;100993.16;4918154;28;98544;-74
2022/04/02 11:09:32;;;;;;;1999.90;999.90;;;;;;;1.10;36.80;101016.56;4921432;28;99521;-73
2022/04/02 11:12:04;;;;;;;1999.90;999.90;;;;;;;1.05;37.16;101016.25;4920205;28;96882;-73
2022/04/02 11:14:40;;;;;;;1999.90;999.90;;;;;;;1.00;37.36;101006.31;4923075;28;98033;-73